createdAt,value
2019-03-03T00:02:36.097Z,99.90
2019-03-03T00:05:40.552Z,99.90
2019-03-03T00:08:45.316Z,99.90
2019-03-03T00:11:49.757Z,99.90
2019-03-03T00:14:54.471Z,99.90
2019-03-03T00:17:58.983Z,99.90
2019-03-03T00:21:03.406Z,99.90
2019-03-03T00:24:07.841Z,99.90
2019-03-03T00:27:12.580Z,99.90
2019-03-03T00:30:21.311Z,99.90
2019-03-03T00:33:26.137Z,99.90
2019-03-03T00:36:32.204Z,99.90
2019-03-03T00:39:41.329Z,99.90
2019-03-03T00:42:47.413Z,99.90
2019-03-03T00:46:09.677Z,99.90
2019-03-03T00:49:18.922Z,99.90
2019-03-03T00:52:31.093Z,99.90
2019-03-03T00:55:37.448Z,99.90
2019-03-03T00:58:56.406Z,99.90
2019-03-03T01:02:05.258Z,99.90
2019-03-03T01:05:23.791Z,99.80
2019-03-03T01:08:32.614Z,99.80
2019-03-03T01:11:44.630Z,99.60
2019-03-03T01:14:51.390Z,99.70
2019-03-03T01:18:03.715Z,99.60
2019-03-03T01:21:12.532Z,99.40
2019-03-03T01:24:36.637Z,99.30
2019-03-03T01:27:41.349Z,99.20
2019-03-03T01:30:45.860Z,99.00
2019-03-03T01:33:50.301Z,99.20
2019-03-03T01:36:54.729Z,99.00
2019-03-03T01:39:59.165Z,99.00
2019-03-03T01:43:03.594Z,99.00
2019-03-03T01:46:08.295Z,99.10
2019-03-03T01:49:13.031Z,99.20
2019-03-03T01:52:17.466Z,99.40
2019-03-03T01:55:21.923Z,99.40
2019-03-03T01:58:26.610Z,99.30
2019-03-03T02:01:31.405Z,99.30
2019-03-03T02:04:35.835Z,99.40
2019-03-03T02:07:40.257Z,99.70
2019-03-03T02:10:45.128Z,99.50
2019-03-03T02:13:49.847Z,99.50
2019-03-03T02:16:54.582Z,99.30
2019-03-03T02:19:59.315Z,99.30
2019-03-03T02:23:03.750Z,99.20
2019-03-03T02:26:08.187Z,99.20
2019-03-03T02:29:12.889Z,99.20
2019-03-03T02:32:17.318Z,99.20
2019-03-03T02:35:21.819Z,99.20
2019-03-03T02:38:27.187Z,99.30
2019-03-03T02:41:31.912Z,99.20
2019-03-03T02:44:36.438Z,99.10
2019-03-03T02:47:41.174Z,99.20
2019-03-03T02:50:45.612Z,99.20
2019-03-03T02:53:50.113Z,99.20
2019-03-03T02:56:54.536Z,99.20
2019-03-03T02:59:59.276Z,99.10
2019-03-03T03:03:07.770Z,99.10
2019-03-03T03:06:14.164Z,99.10
2019-03-03T03:09:22.941Z,99.10
2019-03-03T03:12:31.916Z,99.10
2019-03-03T03:15:40.661Z,99.10
2019-03-03T03:19:02.775Z,99.10
2019-03-03T03:22:08.925Z,99.10
2019-03-03T03:25:25.147Z,99.10
2019-03-03T03:28:47.590Z,99.10
2019-03-03T03:31:56.950Z,99.10
2019-03-03T03:35:12.033Z,98.90
2019-03-03T03:38:30.101Z,98.90
2019-03-03T03:41:36.423Z,98.80
2019-03-03T03:44:48.526Z,98.90
2019-03-03T03:48:12.913Z,98.80
2019-03-03T03:51:27.894Z,99.00
2019-03-03T03:54:50.385Z,99.00
2019-03-03T03:57:56.804Z,99.10
2019-03-03T04:01:02.892Z,99.20
2019-03-03T04:04:11.900Z,99.20
2019-03-03T04:07:18.248Z,99.20
2019-03-03T04:10:26.815Z,99.30
2019-03-03T04:13:32.903Z,99.40
2019-03-03T04:16:47.689Z,99.50
2019-03-03T04:19:53.747Z,99.50
2019-03-03T04:23:02.601Z,99.60
2019-03-03T04:26:24.844Z,99.80
2019-03-03T04:29:36.931Z,99.80
2019-03-03T04:32:47.106Z,99.80
2019-03-03T04:35:59.312Z,99.90
2019-03-03T04:39:20.332Z,99.90
2019-03-03T04:42:38.175Z,99.90
2019-03-03T04:45:50.369Z,99.90
2019-03-03T04:48:59.394Z,99.90
2019-03-03T04:52:21.505Z,99.90
2019-03-03T04:55:43.908Z,99.90
2019-03-03T04:58:51.070Z,99.90
2019-03-03T05:02:02.847Z,99.90
2019-03-03T05:05:16.417Z,99.90
2019-03-03T05:08:25.193Z,99.90
2019-03-03T05:12:23.910Z,99.90
2019-03-03T05:15:45.224Z,99.90
2019-03-03T05:18:51.620Z,99.90
2019-03-03T05:21:56.359Z,99.90
2019-03-03T05:25:00.785Z,99.90
2019-03-03T05:28:05.509Z,99.90
2019-03-03T05:31:10.017Z,99.90
2019-03-03T05:34:16.644Z,99.90
2019-03-03T05:37:21.325Z,99.90
2019-03-03T05:40:26.066Z,99.90
2019-03-03T05:43:30.514Z,99.90
2019-03-03T05:46:35.214Z,99.90
2019-03-03T05:49:39.961Z,99.90
2019-03-03T05:52:44.387Z,99.90
2019-03-03T05:55:49.099Z,99.90
2019-03-03T05:58:53.839Z,99.90
2019-03-03T06:01:58.265Z,99.90
2019-03-03T06:05:02.692Z,99.90
2019-03-03T06:08:07.127Z,99.90
2019-03-03T06:11:11.554Z,99.90
2019-03-03T06:14:16.259Z,99.90
2019-03-03T06:17:20.990Z,99.90
2019-03-03T06:20:25.414Z,99.90
2019-03-03T06:23:30.244Z,99.90
2019-03-03T06:26:34.677Z,99.70
2019-03-03T06:29:39.404Z,99.60
2019-03-03T06:32:44.134Z,99.50
2019-03-03T06:35:48.559Z,99.60
2019-03-03T06:38:53.286Z,99.30
2019-03-03T06:41:58.022Z,99.40
2019-03-03T06:45:02.475Z,99.60
2019-03-03T06:48:06.900Z,99.50
2019-03-03T06:51:11.322Z,99.50
2019-03-03T06:54:16.117Z,99.60
2019-03-03T06:57:20.846Z,99.50
2019-03-03T07:00:25.269Z,99.70
2019-03-03T07:03:29.705Z,99.00
2019-03-03T07:06:34.138Z,98.60
2019-03-03T07:09:38.954Z,97.70
2019-03-03T07:12:43.396Z,97.10
2019-03-03T07:15:48.108Z,96.80
2019-03-03T07:18:52.840Z,96.70
2019-03-03T07:21:57.571Z,96.80
2019-03-03T07:25:02.030Z,96.90
2019-03-03T07:28:06.724Z,96.90
2019-03-03T07:31:11.453Z,96.80
2019-03-03T07:34:16.190Z,96.90
2019-03-03T07:37:20.614Z,97.40
2019-03-03T07:40:25.057Z,96.60
2019-03-03T07:43:29.506Z,96.80
2019-03-03T07:46:34.917Z,96.90
2019-03-03T07:49:39.363Z,96.80
2019-03-03T07:52:43.867Z,96.90
2019-03-03T07:55:48.591Z,97.10
2019-03-03T07:58:53.031Z,97.10
2019-03-03T08:01:57.744Z,96.80
2019-03-03T08:05:02.474Z,96.90
2019-03-03T08:08:06.911Z,97.00
2019-03-03T08:11:11.631Z,96.90
2019-03-03T08:14:16.364Z,96.80
2019-03-03T08:17:20.790Z,97.00
2019-03-03T08:20:25.510Z,97.00
2019-03-03T08:23:29.951Z,96.90
2019-03-03T08:26:34.664Z,97.00
2019-03-03T08:29:39.110Z,97.00
2019-03-03T08:32:43.547Z,97.30
2019-03-03T08:35:48.001Z,97.40
2019-03-03T08:38:52.767Z,97.30
2019-03-03T08:41:59.135Z,97.40
2019-03-03T08:45:06.017Z,97.20
2019-03-03T08:48:21.200Z,97.10
2019-03-03T08:51:27.284Z,97.40
2019-03-03T08:54:36.097Z,97.00
2019-03-03T08:57:42.189Z,96.70
2019-03-03T09:00:50.961Z,97.00
2019-03-03T09:04:13.444Z,97.00
2019-03-03T09:07:19.544Z,97.20
2019-03-03T09:10:28.618Z,97.20
2019-03-03T09:13:37.590Z,96.90
2019-03-03T09:16:48.278Z,97.10
2019-03-03T09:20:03.974Z,97.00
2019-03-03T09:23:16.309Z,96.90
2019-03-03T09:26:28.359Z,96.50
2019-03-03T09:29:34.450Z,96.30
2019-03-03T09:32:40.854Z,96.40
2019-03-03T09:35:45.374Z,96.30
2019-03-03T09:39:08.029Z,96.10
2019-03-03T09:42:23.308Z,96.10
2019-03-03T09:45:31.993Z,96.20
2019-03-03T09:48:54.687Z,96.10
2019-03-03T09:52:01.226Z,96.00
2019-03-03T09:55:07.874Z,95.90
2019-03-03T09:58:19.914Z,95.70
2019-03-03T10:01:31.792Z,95.80
2019-03-03T10:04:44.137Z,95.80
2019-03-03T10:07:52.875Z,95.60
2019-03-03T10:10:57.380Z,95.50
2019-03-03T10:14:03.456Z,95.40
2019-03-03T10:17:21.789Z,95.60
2019-03-03T10:20:30.599Z,95.20
2019-03-03T10:23:53.064Z,94.90
2019-03-03T10:27:11.418Z,95.00
2019-03-03T10:30:18.361Z,95.20
2019-03-03T10:33:34.605Z,95.00
2019-03-03T10:36:44.285Z,94.90
2019-03-03T10:40:06.687Z,95.10
2019-03-03T10:43:12.777Z,94.70
2019-03-03T10:46:21.518Z,94.70
2019-03-03T10:49:33.581Z,94.90
2019-03-03T10:52:40.056Z,94.60
2019-03-03T10:55:46.134Z,94.40
2019-03-03T10:58:52.218Z,94.40
2019-03-03T11:02:01.208Z,94.40
2019-03-03T11:05:10.512Z,94.70
2019-03-03T11:08:16.607Z,94.50
2019-03-03T11:11:38.883Z,94.40
2019-03-03T11:14:50.562Z,94.60
2019-03-03T11:17:57.562Z,94.70
2019-03-03T11:21:06.971Z,94.80
2019-03-03T11:24:29.437Z,94.80
2019-03-03T11:27:49.610Z,94.80
2019-03-03T11:30:55.982Z,94.70
2019-03-03T11:34:05.236Z,94.70
2019-03-03T11:37:14.244Z,94.80
2019-03-03T11:40:29.492Z,94.70
2019-03-03T11:43:38.228Z,94.90
2019-03-03T11:46:44.303Z,94.80
2019-03-03T11:49:50.388Z,94.60
2019-03-03T11:52:54.895Z,94.50
2019-03-03T11:56:19.810Z,94.40
2019-03-03T11:59:31.903Z,94.10
2019-03-03T12:02:54.358Z,94.80
2019-03-03T12:06:12.734Z,94.20
2019-03-03T12:09:25.033Z,93.90
2019-03-03T12:12:31.114Z,94.00
2019-03-03T12:15:40.208Z,94.20
2019-03-03T12:18:54.839Z,94.10
2019-03-03T12:22:01.143Z,94.20
2019-03-03T12:25:10.786Z,94.20
2019-03-03T12:28:25.564Z,94.20
2019-03-03T12:31:34.279Z,94.20
2019-03-03T12:34:38.541Z,94.20
2019-03-03T12:37:47.548Z,94.10
2019-03-03T12:41:09.322Z,93.70
2019-03-03T12:44:15.459Z,93.80
2019-03-03T12:47:25.373Z,93.30
2019-03-03T12:50:47.821Z,93.00
2019-03-03T12:54:08.728Z,92.60
2019-03-03T12:57:17.267Z,92.50
2019-03-03T13:00:26.280Z,92.50
2019-03-03T13:03:48.719Z,92.00
2019-03-03T13:06:57.566Z,92.30
2019-03-03T13:10:12.363Z,92.30
2019-03-03T13:13:21.220Z,92.80
2019-03-03T13:16:42.563Z,92.60
2019-03-03T13:19:58.418Z,92.80
2019-03-03T13:23:20.082Z,92.90
2019-03-03T13:26:41.968Z,93.10
2019-03-03T13:29:53.482Z,93.00
2019-03-03T13:33:05.829Z,93.20
2019-03-03T13:36:12.239Z,93.30
2019-03-03T13:39:21.090Z,93.50
2019-03-03T13:42:36.291Z,93.50
2019-03-03T13:45:40.792Z,93.40
2019-03-03T13:48:45.660Z,93.30
2019-03-03T13:51:50.096Z,93.40
2019-03-03T13:54:54.906Z,93.40
2019-03-03T13:57:59.339Z,93.70
2019-03-03T14:01:04.276Z,93.70
2019-03-03T14:04:08.771Z,93.90
2019-03-03T14:07:13.221Z,93.80
2019-03-03T14:10:17.693Z,93.80
2019-03-03T14:13:22.133Z,93.30
2019-03-03T14:16:26.638Z,93.30
2019-03-03T14:19:31.494Z,93.00
2019-03-03T14:22:36.257Z,93.00
2019-03-03T14:25:40.707Z,92.30
2019-03-03T14:28:45.144Z,91.90
2019-03-03T14:31:49.603Z,91.90
2019-03-03T14:34:54.036Z,91.90
2019-03-03T14:37:58.782Z,91.50
2019-03-03T14:41:03.511Z,91.40
2019-03-03T14:44:08.243Z,91.10
2019-03-03T14:47:12.691Z,90.90
2019-03-03T14:50:21.196Z,90.70
2019-03-03T14:53:25.631Z,90.80
2019-03-03T14:56:30.339Z,90.90
2019-03-03T14:59:35.286Z,90.60
2019-03-03T15:02:39.813Z,90.40
2019-03-03T15:05:44.254Z,90.10
2019-03-03T15:08:48.955Z,90.40
2019-03-03T15:11:53.404Z,90.30
2019-03-03T15:14:58.215Z,90.80
2019-03-03T15:18:02.732Z,90.70
2019-03-03T15:21:07.171Z,91.00
2019-03-03T15:24:11.744Z,91.20
2019-03-03T15:27:16.522Z,91.50
2019-03-03T15:30:22.893Z,91.50
2019-03-03T15:33:27.341Z,91.70
2019-03-03T15:36:31.788Z,91.70
2019-03-03T15:39:36.574Z,91.50
2019-03-03T15:42:41.755Z,91.70
2019-03-03T15:45:46.203Z,91.70
2019-03-03T15:48:50.647Z,91.20
2019-03-03T15:51:55.082Z,91.30
2019-03-03T15:54:59.521Z,91.60
2019-03-03T15:58:03.961Z,91.60
2019-03-03T16:01:13.253Z,91.50
2019-03-03T16:04:17.998Z,91.30
2019-03-03T16:07:22.731Z,91.40
2019-03-03T16:10:28.191Z,91.30
2019-03-03T16:13:32.930Z,91.50
2019-03-03T16:16:37.365Z,91.50
2019-03-03T16:19:42.067Z,91.70
2019-03-03T16:22:46.846Z,91.80
2019-03-03T16:25:51.719Z,91.70
2019-03-03T16:28:56.400Z,91.80
2019-03-03T16:32:00.843Z,91.70
2019-03-03T16:35:07.086Z,91.70
2019-03-03T16:38:11.529Z,91.90
2019-03-03T16:41:16.215Z,92.10
2019-03-03T16:44:20.650Z,92.10
2019-03-03T16:47:25.359Z,92.00
2019-03-03T16:50:29.792Z,91.80
2019-03-03T16:53:34.232Z,91.90
2019-03-03T16:56:38.679Z,91.80
2019-03-03T16:59:43.457Z,91.90
2019-03-03T17:02:48.199Z,92.50
2019-03-03T17:05:53.017Z,91.90
2019-03-03T17:08:57.464Z,91.80
2019-03-03T17:12:02.600Z,91.70
2019-03-03T17:15:14.793Z,91.70
2019-03-03T17:18:19.246Z,91.90
2019-03-03T17:21:23.732Z,91.70
2019-03-03T17:24:28.123Z,91.90
2019-03-03T17:27:32.897Z,92.00
2019-03-03T17:30:37.499Z,92.30
2019-03-03T17:33:42.259Z,92.40
2019-03-03T17:36:46.698Z,92.40
2019-03-03T17:39:51.459Z,92.60
2019-03-03T17:42:55.857Z,92.60
2019-03-03T17:46:00.297Z,92.90
2019-03-03T17:49:04.735Z,92.80
2019-03-03T17:52:09.455Z,92.80
2019-03-03T17:55:15.193Z,92.90
2019-03-03T17:58:19.899Z,92.90
2019-03-03T18:01:24.735Z,93.20
2019-03-03T18:04:29.466Z,93.30
2019-03-03T18:07:33.919Z,93.30
2019-03-03T18:10:38.427Z,93.30
2019-03-03T18:13:42.873Z,93.30
2019-03-03T18:16:47.310Z,93.40
2019-03-03T18:19:51.752Z,93.50
2019-03-03T18:22:56.521Z,93.80
2019-03-03T18:26:02.889Z,93.70
2019-03-03T18:29:07.618Z,93.90
2019-03-03T18:32:12.059Z,94.00
2019-03-03T18:35:17.293Z,94.00
2019-03-03T18:38:22.015Z,94.00
2019-03-03T18:41:26.459Z,94.20
2019-03-03T18:44:31.176Z,94.40
2019-03-03T18:47:35.606Z,94.70
2019-03-03T18:50:40.314Z,94.90
2019-03-03T18:53:44.769Z,95.30
2019-03-03T18:56:49.211Z,95.60
2019-03-03T18:59:55.492Z,95.70
2019-03-03T19:03:00.155Z,95.90
2019-03-03T19:06:05.006Z,96.10
2019-03-03T19:09:11.513Z,96.30
2019-03-03T19:12:16.314Z,96.80
2019-03-03T19:15:21.595Z,96.80
2019-03-03T19:18:26.028Z,96.50
2019-03-03T19:21:30.472Z,96.50
2019-03-03T19:24:35.225Z,96.00
2019-03-03T19:27:40.894Z,95.60
2019-03-03T19:30:45.444Z,95.30
2019-03-03T19:33:54.235Z,95.10
2019-03-03T19:36:58.677Z,95.10
2019-03-03T19:40:03.384Z,95.20
2019-03-03T19:43:07.964Z,95.30
2019-03-03T19:46:12.859Z,95.40
2019-03-03T19:49:17.276Z,95.30
2019-03-03T19:52:21.996Z,95.30
2019-03-03T19:55:26.441Z,95.30
2019-03-03T19:58:30.878Z,95.40
2019-03-03T20:01:35.329Z,95.40
2019-03-03T20:04:40.100Z,95.30
2019-03-03T20:07:44.835Z,95.40
2019-03-03T20:10:49.342Z,95.20
2019-03-03T20:13:53.777Z,95.20
2019-03-03T20:16:58.266Z,95.40
2019-03-03T20:20:02.936Z,95.40
2019-03-03T20:23:08.152Z,95.60
2019-03-03T20:26:13.029Z,96.00
2019-03-03T20:29:17.513Z,96.50
2019-03-03T20:32:21.920Z,96.60
2019-03-03T20:35:26.431Z,96.70
2019-03-03T20:38:30.870Z,96.80
2019-03-03T20:41:35.313Z,97.00
2019-03-03T20:44:39.742Z,97.40
2019-03-03T20:47:44.190Z,97.30
2019-03-03T20:50:48.626Z,97.30
2019-03-03T20:53:53.056Z,97.60
2019-03-03T20:56:57.500Z,97.50
2019-03-03T21:00:02.210Z,97.30
2019-03-03T21:03:06.650Z,97.60
2019-03-03T21:06:11.448Z,97.70
2019-03-03T21:09:16.376Z,97.70
2019-03-03T21:12:20.827Z,97.90
2019-03-03T21:15:25.264Z,97.90
2019-03-03T21:18:29.695Z,97.80
2019-03-03T21:21:34.134Z,97.70
2019-03-03T21:24:38.805Z,97.80
2019-03-03T21:27:43.238Z,97.80
2019-03-03T21:30:47.675Z,97.90
2019-03-03T21:33:52.101Z,98.00
2019-03-03T21:36:56.542Z,98.00
2019-03-03T21:40:00.976Z,98.20
2019-03-03T21:43:05.443Z,98.10
2019-03-03T21:46:09.872Z,98.30
2019-03-03T21:49:14.601Z,98.20
2019-03-03T21:52:19.038Z,98.50
2019-03-03T21:55:23.750Z,98.50
2019-03-03T21:58:28.177Z,98.60
2019-03-03T22:01:32.907Z,98.40
2019-03-03T22:04:37.641Z,98.90
2019-03-03T22:07:42.368Z,98.80
2019-03-03T22:10:46.854Z,99.10
2019-03-03T22:13:51.225Z,99.20
2019-03-03T22:16:55.663Z,99.30
2019-03-03T22:20:00.823Z,99.00
2019-03-03T22:23:05.504Z,99.10
2019-03-03T22:26:09.941Z,98.90
2019-03-03T22:29:14.662Z,98.80
2019-03-03T22:32:19.395Z,98.60
2019-03-03T22:35:23.819Z,98.60
2019-03-03T22:38:28.553Z,98.50
2019-03-03T22:41:32.986Z,98.50
2019-03-03T22:44:38.146Z,98.50
2019-03-03T22:47:43.048Z,98.20
2019-03-03T22:50:47.467Z,98.20
2019-03-03T22:53:51.906Z,97.90
2019-03-03T22:56:56.625Z,98.00
2019-03-03T23:00:01.357Z,97.90
2019-03-03T23:03:07.526Z,98.00
2019-03-03T23:06:26.069Z,97.90
2019-03-03T23:10:00.400Z,97.90
2019-03-03T23:13:29.193Z,97.90
2019-03-03T23:16:52.557Z,97.60
2019-03-03T23:20:28.082Z,97.80
2019-03-03T23:24:12.473Z,98.00
2019-03-03T23:27:16.915Z,97.30
2019-03-03T23:30:21.679Z,97.10
2019-03-03T23:33:26.072Z,95.80
2019-03-03T23:36:30.509Z,94.70
2019-03-03T23:39:35.211Z,93.90
2019-03-03T23:42:40.037Z,93.60
2019-03-03T23:45:44.476Z,93.10
2019-03-03T23:48:48.912Z,92.80
2019-03-03T23:51:53.617Z,92.80
2019-03-03T23:54:58.358Z,92.40
2019-03-03T23:58:03.084Z,92.10
